sensor_id;sensor_type;location;lat;lon;timestamp;temperature;humidity
15172;DHT22;7686;52.184;9.280;2022-12-29T00:02:14;27.00;36.20
15172;DHT22;7686;52.184;9.280;2022-12-29T00:04:41;27.00;36.20
15172;DHT22;7686;52.184;9.280;2022-12-29T00:07:09;27.00;36.20
15172;DHT22;7686;52.184;9.280;2022-12-29T00:09:35;27.00;36.10
15172;DHT22;7686;52.184;9.280;2022-12-29T00:12:03;27.00;36.20
15172;DHT22;7686;52.184;9.280;2022-12-29T00:14:30;27.00;36.20
15172;DHT22;7686;52.184;9.280;2022-12-29T00:17:16;27.00;36.10
15172;DHT22;7686;52.184;9.280;2022-12-29T00:19:43;27.00;36.10
15172;DHT22;7686;52.184;9.280;2022-12-29T00:22:29;27.00;36.10
15172;DHT22;7686;52.184;9.280;2022-12-29T00:25:14;27.00;36.20
15172;DHT22;7686;52.184;9.280;2022-12-29T00:28:00;27.00;36.20
15172;DHT22;7686;52.184;9.280;2022-12-29T00:30:45;27.00;36.20
15172;DHT22;7686;52.184;9.280;2022-12-29T00:33:32;27.00;36.10
15172;DHT22;7686;52.184;9.280;2022-12-29T00:36:39;27.00;36.20
15172;DHT22;7686;52.184;9.280;2022-12-29T00:39:12;27.00;36.20
15172;DHT22;7686;52.184;9.280;2022-12-29T00:42:06;27.00;36.20
15172;DHT22;7686;52.184;9.280;2022-12-29T00:45:06;27.00;36.20
15172;DHT22;7686;52.184;9.280;2022-12-29T00:47:32;26.90;36.10
15172;DHT22;7686;52.184;9.280;2022-12-29T00:49:59;27.00;36.20
15172;DHT22;7686;52.184;9.280;2022-12-29T00:52:26;27.00;36.20
15172;DHT22;7686;52.184;9.280;2022-12-29T00:54:53;27.00;36.20
15172;DHT22;7686;52.184;9.280;2022-12-29T00:57:19;26.90;36.10
15172;DHT22;7686;52.184;9.280;2022-12-29T00:59:46;27.00;36.20
15172;DHT22;7686;52.184;9.280;2022-12-29T01:02:12;27.00;36.20
15172;DHT22;7686;52.184;9.280;2022-12-29T01:04:39;27.00;36.20
15172;DHT22;7686;52.184;9.280;2022-12-29T01:07:06;27.00;36.20
15172;DHT22;7686;52.184;9.280;2022-12-29T01:09:32;26.90;36.10
15172;DHT22;7686;52.184;9.280;2022-12-29T01:12:18;26.90;36.10
15172;DHT22;7686;52.184;9.280;2022-12-29T01:15:05;27.00;36.20
15172;DHT22;7686;52.184;9.280;2022-12-29T01:17:32;26.90;36.10
15172;DHT22;7686;52.184;9.280;2022-12-29T01:20:00;26.90;36.10
15172;DHT22;7686;52.184;9.280;2022-12-29T01:22:27;27.00;36.30
15172;DHT22;7686;52.184;9.280;2022-12-29T01:24:54;26.90;36.10
15172;DHT22;7686;52.184;9.280;2022-12-29T01:27:21;26.90;36.20
15172;DHT22;7686;52.184;9.280;2022-12-29T01:29:47;26.90;36.20
15172;DHT22;7686;52.184;9.280;2022-12-29T01:32:14;26.90;36.10
15172;DHT22;7686;52.184;9.280;2022-12-29T01:34:41;26.90;36.20
15172;DHT22;7686;52.184;9.280;2022-12-29T01:37:07;26.90;36.20
15172;DHT22;7686;52.184;9.280;2022-12-29T01:39:34;26.90;36.20
15172;DHT22;7686;52.184;9.280;2022-12-29T01:42:01;27.00;36.20
15172;DHT22;7686;52.184;9.280;2022-12-29T01:44:47;26.90;36.10
15172;DHT22;7686;52.184;9.280;2022-12-29T01:47:36;26.90;36.20
15172;DHT22;7686;52.184;9.280;2022-12-29T01:50:12;26.90;36.20
15172;DHT22;7686;52.184;9.280;2022-12-29T01:52:44;26.90;36.20
15172;DHT22;7686;52.184;9.280;2022-12-29T01:55:14;26.90;36.20
15172;DHT22;7686;52.184;9.280;2022-12-29T01:57:42;26.90;36.20
15172;DHT22;7686;52.184;9.280;2022-12-29T02:00:12;26.90;36.20
15172;DHT22;7686;52.184;9.280;2022-12-29T02:02:44;26.90;36.20
15172;DHT22;7686;52.184;9.280;2022-12-29T02:07:52;26.90;36.20
15172;DHT22;7686;52.184;9.280;2022-12-29T02:10:21;26.90;36.20
15172;DHT22;7686;52.184;9.280;2022-12-29T02:12:49;26.90;36.20
15172;DHT22;7686;52.184;9.280;2022-12-29T02:15:16;26.90;36.20
15172;DHT22;7686;52.184;9.280;2022-12-29T02:39:23;26.90;36.20
15172;DHT22;7686;52.184;9.280;2022-12-29T02:42:17;26.90;36.20
15172;DHT22;7686;52.184;9.280;2022-12-29T02:45:02;26.90;36.20
15172;DHT22;7686;52.184;9.280;2022-12-29T02:50:50;26.90;36.20
15172;DHT22;7686;52.184;9.280;2022-12-29T02:53:20;26.90;36.20
15172;DHT22;7686;52.184;9.280;2022-12-29T02:56:07;26.90;36.20
15172;DHT22;7686;52.184;9.280;2022-12-29T02:58:34;26.90;36.30
15172;DHT22;7686;52.184;9.280;2022-12-29T03:01:14;26.90;36.30
15172;DHT22;7686;52.184;9.280;2022-12-29T03:07:18;26.90;36.30
15172;DHT22;7686;52.184;9.280;2022-12-29T03:09:55;26.90;36.30
15172;DHT22;7686;52.184;9.280;2022-12-29T03:15:31;26.90;36.30
15172;DHT22;7686;52.184;9.280;2022-12-29T03:18:26;26.90;36.30
15172;DHT22;7686;52.184;9.280;2022-12-29T03:21:02;26.90;36.30
15172;DHT22;7686;52.184;9.280;2022-12-29T03:23:31;26.90;36.30
15172;DHT22;7686;52.184;9.280;2022-12-29T03:26:02;26.80;36.20
15172;DHT22;7686;52.184;9.280;2022-12-29T03:28:35;26.90;36.30
15172;DHT22;7686;52.184;9.280;2022-12-29T03:31:04;26.90;36.30
15172;DHT22;7686;52.184;9.280;2022-12-29T03:33:34;26.90;36.30
15172;DHT22;7686;52.184;9.280;2022-12-29T03:36:04;26.90;36.30
15172;DHT22;7686;52.184;9.280;2022-12-29T03:38:46;26.90;36.30
15172;DHT22;7686;52.184;9.280;2022-12-29T03:41:17;26.80;36.20
15172;DHT22;7686;52.184;9.280;2022-12-29T03:43:45;26.90;36.30
15172;DHT22;7686;52.184;9.280;2022-12-29T03:46:12;26.90;36.30
15172;DHT22;7686;52.184;9.280;2022-12-29T03:48:38;26.90;36.30
15172;DHT22;7686;52.184;9.280;2022-12-29T03:51:05;26.90;36.30
15172;DHT22;7686;52.184;9.280;2022-12-29T03:53:32;26.90;36.30
15172;DHT22;7686;52.184;9.280;2022-12-29T03:55:58;26.90;36.30
15172;DHT22;7686;52.184;9.280;2022-12-29T03:58:25;26.90;36.30
15172;DHT22;7686;52.184;9.280;2022-12-29T04:00:52;26.90;36.30
15172;DHT22;7686;52.184;9.280;2022-12-29T04:03:18;26.90;36.30
15172;DHT22;7686;52.184;9.280;2022-12-29T04:05:45;26.90;36.30
15172;DHT22;7686;52.184;9.280;2022-12-29T04:08:12;26.90;36.30
15172;DHT22;7686;52.184;9.280;2022-12-29T04:10:39;26.90;36.30
15172;DHT22;7686;52.184;9.280;2022-12-29T04:13:06;26.90;36.30
15172;DHT22;7686;52.184;9.280;2022-12-29T04:15:33;26.90;36.40
15172;DHT22;7686;52.184;9.280;2022-12-29T04:18:01;26.90;36.30
15172;DHT22;7686;52.184;9.280;2022-12-29T04:20:28;26.90;36.40
15172;DHT22;7686;52.184;9.280;2022-12-29T04:23:13;26.90;36.30
15172;DHT22;7686;52.184;9.280;2022-12-29T04:25:39;26.80;36.20
15172;DHT22;7686;52.184;9.280;2022-12-29T04:28:06;26.90;36.30
15172;DHT22;7686;52.184;9.280;2022-12-29T04:30:34;26.80;36.20
15172;DHT22;7686;52.184;9.280;2022-12-29T04:33:01;26.80;36.20
15172;DHT22;7686;52.184;9.280;2022-12-29T04:35:27;26.80;36.20
15172;DHT22;7686;52.184;9.280;2022-12-29T04:37:54;26.90;36.30
15172;DHT22;7686;52.184;9.280;2022-12-29T04:40:21;26.80;36.20
15172;DHT22;7686;52.184;9.280;2022-12-29T04:42:48;26.80;36.30
15172;DHT22;7686;52.184;9.280;2022-12-29T04:45:14;26.90;36.30
15172;DHT22;7686;52.184;9.280;2022-12-29T04:47:42;26.90;36.40
15172;DHT22;7686;52.184;9.280;2022-12-29T04:50:09;26.90;36.40
15172;DHT22;7686;52.184;9.280;2022-12-29T04:52:36;26.90;36.30
15172;DHT22;7686;52.184;9.280;2022-12-29T04:55:03;26.90;36.30
15172;DHT22;7686;52.184;9.280;2022-12-29T04:57:30;26.90;36.30
15172;DHT22;7686;52.184;9.280;2022-12-29T04:59:57;26.90;36.30
15172;DHT22;7686;52.184;9.280;2022-12-29T05:02:24;26.90;36.40
15172;DHT22;7686;52.184;9.280;2022-12-29T05:04:51;26.90;36.40
15172;DHT22;7686;52.184;9.280;2022-12-29T05:07:18;26.90;36.30
15172;DHT22;7686;52.184;9.280;2022-12-29T05:09:45;26.90;36.40
15172;DHT22;7686;52.184;9.280;2022-12-29T05:12:11;26.90;36.30
15172;DHT22;7686;52.184;9.280;2022-12-29T05:14:38;26.90;36.30
15172;DHT22;7686;52.184;9.280;2022-12-29T05:17:05;26.90;36.30
15172;DHT22;7686;52.184;9.280;2022-12-29T05:19:32;26.90;36.30
15172;DHT22;7686;52.184;9.280;2022-12-29T05:21:58;26.90;36.30
15172;DHT22;7686;52.184;9.280;2022-12-29T05:24:25;26.90;36.30
15172;DHT22;7686;52.184;9.280;2022-12-29T05:26:52;26.90;36.30
15172;DHT22;7686;52.184;9.280;2022-12-29T05:29:18;26.90;36.30
15172;DHT22;7686;52.184;9.280;2022-12-29T05:31:45;26.90;36.30
15172;DHT22;7686;52.184;9.280;2022-12-29T05:34:12;26.90;36.30
15172;DHT22;7686;52.184;9.280;2022-12-29T05:36:39;26.90;36.30
15172;DHT22;7686;52.184;9.280;2022-12-29T05:39:06;26.90;36.20
15172;DHT22;7686;52.184;9.280;2022-12-29T05:41:34;26.90;36.30
15172;DHT22;7686;52.184;9.280;2022-12-29T05:44:01;26.90;36.30
15172;DHT22;7686;52.184;9.280;2022-12-29T05:46:28;26.90;36.20
15172;DHT22;7686;52.184;9.280;2022-12-29T05:48:55;26.90;36.20
15172;DHT22;7686;52.184;9.280;2022-12-29T05:51:22;26.90;36.30
15172;DHT22;7686;52.184;9.280;2022-12-29T05:53:48;26.90;36.20
15172;DHT22;7686;52.184;9.280;2022-12-29T05:56:15;26.90;36.30
15172;DHT22;7686;52.184;9.280;2022-12-29T05:58:43;26.90;36.20
15172;DHT22;7686;52.184;9.280;2022-12-29T06:01:09;26.90;36.20
15172;DHT22;7686;52.184;9.280;2022-12-29T06:03:36;26.90;36.20
15172;DHT22;7686;52.184;9.280;2022-12-29T06:06:08;26.90;36.20
15172;DHT22;7686;52.184;9.280;2022-12-29T06:08:35;26.90;36.30
15172;DHT22;7686;52.184;9.280;2022-12-29T06:11:01;26.90;36.30
15172;DHT22;7686;52.184;9.280;2022-12-29T06:13:28;26.90;36.30
15172;DHT22;7686;52.184;9.280;2022-12-29T06:15:55;26.90;36.30
15172;DHT22;7686;52.184;9.280;2022-12-29T06:18:21;26.90;36.20
15172;DHT22;7686;52.184;9.280;2022-12-29T06:20:48;26.90;36.30
15172;DHT22;7686;52.184;9.280;2022-12-29T06:23:15;26.90;36.20
15172;DHT22;7686;52.184;9.280;2022-12-29T06:25:42;26.90;36.30
15172;DHT22;7686;52.184;9.280;2022-12-29T06:28:09;26.90;36.30
15172;DHT22;7686;52.184;9.280;2022-12-29T06:30:37;26.90;36.30
15172;DHT22;7686;52.184;9.280;2022-12-29T06:33:04;26.90;36.30
15172;DHT22;7686;52.184;9.280;2022-12-29T06:35:31;26.80;36.20
15172;DHT22;7686;52.184;9.280;2022-12-29T06:37:57;26.90;36.30
15172;DHT22;7686;52.184;9.280;2022-12-29T06:40:24;26.90;37.00
15172;DHT22;7686;52.184;9.280;2022-12-29T06:42:51;26.90;36.30
15172;DHT22;7686;52.184;9.280;2022-12-29T06:45:18;26.80;36.20
15172;DHT22;7686;52.184;9.280;2022-12-29T06:47:44;27.00;36.40
15172;DHT22;7686;52.184;9.280;2022-12-29T06:50:11;26.80;36.20
15172;DHT22;7686;52.184;9.280;2022-12-29T06:52:38;26.90;36.30
15172;DHT22;7686;52.184;9.280;2022-12-29T06:55:04;26.90;36.30
15172;DHT22;7686;52.184;9.280;2022-12-29T06:57:31;26.80;36.20
15172;DHT22;7686;52.184;9.280;2022-12-29T06:59:59;26.80;36.30
15172;DHT22;7686;52.184;9.280;2022-12-29T07:02:25;26.90;36.30
15172;DHT22;7686;52.184;9.280;2022-12-29T07:04:52;26.90;36.40
15172;DHT22;7686;52.184;9.280;2022-12-29T07:07:20;26.80;36.30
15172;DHT22;7686;52.184;9.280;2022-12-29T07:09:47;26.90;36.40
15172;DHT22;7686;52.184;9.280;2022-12-29T07:12:14;26.90;36.40
15172;DHT22;7686;52.184;9.280;2022-12-29T07:14:40;26.80;36.30
15172;DHT22;7686;52.184;9.280;2022-12-29T07:17:09;26.90;36.40
15172;DHT22;7686;52.184;9.280;2022-12-29T07:19:36;26.80;36.30
15172;DHT22;7686;52.184;9.280;2022-12-29T07:22:03;26.80;36.30
15172;DHT22;7686;52.184;9.280;2022-12-29T07:24:29;26.90;36.50
15172;DHT22;7686;52.184;9.280;2022-12-29T07:26:56;26.90;37.10
15172;DHT22;7686;52.184;9.280;2022-12-29T07:29:23;26.80;36.30
15172;DHT22;7686;52.184;9.280;2022-12-29T07:31:49;26.90;36.40
15172;DHT22;7686;52.184;9.280;2022-12-29T07:34:16;26.80;36.30
15172;DHT22;7686;52.184;9.280;2022-12-29T07:36:43;26.80;36.30
15172;DHT22;7686;52.184;9.280;2022-12-29T07:39:09;26.90;36.40
15172;DHT22;7686;52.184;9.280;2022-12-29T07:41:37;26.90;36.50
15172;DHT22;7686;52.184;9.280;2022-12-29T07:44:04;26.80;37.10
15172;DHT22;7686;52.184;9.280;2022-12-29T07:46:31;26.80;36.30
15172;DHT22;7686;52.184;9.280;2022-12-29T07:49:17;26.80;36.40
15172;DHT22;7686;52.184;9.280;2022-12-29T07:51:44;26.80;36.40
15172;DHT22;7686;52.184;9.280;2022-12-29T07:54:11;26.80;36.40
15172;DHT22;7686;52.184;9.280;2022-12-29T07:56:39;26.90;36.50
15172;DHT22;7686;52.184;9.280;2022-12-29T07:59:05;26.90;36.50
15172;DHT22;7686;52.184;9.280;2022-12-29T08:01:32;26.80;36.50
15172;DHT22;7686;52.184;9.280;2022-12-29T08:03:59;26.90;36.60
15172;DHT22;7686;52.184;9.280;2022-12-29T08:06:25;26.90;36.60
15172;DHT22;7686;52.184;9.280;2022-12-29T08:08:52;26.90;36.70
15172;DHT22;7686;52.184;9.280;2022-12-29T08:11:19;26.80;36.50
15172;DHT22;7686;52.184;9.280;2022-12-29T08:13:46;26.90;36.70
15172;DHT22;7686;52.184;9.280;2022-12-29T08:16:13;26.90;36.70
15172;DHT22;7686;52.184;9.280;2022-12-29T08:18:40;26.90;36.80
15172;DHT22;7686;52.184;9.280;2022-12-29T08:21:06;26.90;36.80
15172;DHT22;7686;52.184;9.280;2022-12-29T08:23:33;26.90;36.80
15172;DHT22;7686;52.184;9.280;2022-12-29T08:26:01;27.00;36.80
15172;DHT22;7686;52.184;9.280;2022-12-29T08:28:28;27.00;36.90
15172;DHT22;7686;52.184;9.280;2022-12-29T08:30:58;27.00;36.80
15172;DHT22;7686;52.184;9.280;2022-12-29T08:33:25;27.00;36.80
15172;DHT22;7686;52.184;9.280;2022-12-29T08:35:53;27.10;36.90
15172;DHT22;7686;52.184;9.280;2022-12-29T08:38:24;27.10;36.80
15172;DHT22;7686;52.184;9.280;2022-12-29T08:40:51;27.20;36.80
15172;DHT22;7686;52.184;9.280;2022-12-29T08:43:18;27.20;36.80
15172;DHT22;7686;52.184;9.280;2022-12-29T08:45:44;27.20;36.60
15172;DHT22;7686;52.184;9.280;2022-12-29T08:48:11;27.30;36.70
15172;DHT22;7686;52.184;9.280;2022-12-29T08:50:38;27.40;36.60
15172;DHT22;7686;52.184;9.280;2022-12-29T08:53:05;27.30;36.50
15172;DHT22;7686;52.184;9.280;2022-12-29T08:55:31;27.40;36.50
15172;DHT22;7686;52.184;9.280;2022-12-29T08:57:58;27.40;36.40
15172;DHT22;7686;52.184;9.280;2022-12-29T09:00:25;27.40;36.40
15172;DHT22;7686;52.184;9.280;2022-12-29T09:02:52;27.50;36.30
15172;DHT22;7686;52.184;9.280;2022-12-29T09:05:19;27.50;36.30
15172;DHT22;7686;52.184;9.280;2022-12-29T09:07:45;27.50;36.20
15172;DHT22;7686;52.184;9.280;2022-12-29T09:10:12;27.50;36.20
15172;DHT22;7686;52.184;9.280;2022-12-29T09:12:39;27.50;36.20
15172;DHT22;7686;52.184;9.280;2022-12-29T09:15:06;27.50;36.10
15172;DHT22;7686;52.184;9.280;2022-12-29T09:17:33;27.50;36.10
15172;DHT22;7686;52.184;9.280;2022-12-29T09:20:16;27.50;36.10
15172;DHT22;7686;52.184;9.280;2022-12-29T09:22:45;27.50;36.00
15172;DHT22;7686;52.184;9.280;2022-12-29T09:25:13;27.50;36.00
15172;DHT22;7686;52.184;9.280;2022-12-29T09:27:40;27.50;36.00
15172;DHT22;7686;52.184;9.280;2022-12-29T09:30:09;27.50;36.00
15172;DHT22;7686;52.184;9.280;2022-12-29T09:32:37;27.50;36.00
15172;DHT22;7686;52.184;9.280;2022-12-29T09:35:10;27.50;36.00
15172;DHT22;7686;52.184;9.280;2022-12-29T09:37:37;27.50;36.00
15172;DHT22;7686;52.184;9.280;2022-12-29T09:40:05;27.50;36.00
15172;DHT22;7686;52.184;9.280;2022-12-29T09:42:40;27.50;36.00
15172;DHT22;7686;52.184;9.280;2022-12-29T09:45:29;27.40;36.00
15172;DHT22;7686;52.184;9.280;2022-12-29T09:47:59;27.40;36.00
15172;DHT22;7686;52.184;9.280;2022-12-29T09:50:35;27.40;36.00
15172;DHT22;7686;52.184;9.280;2022-12-29T09:53:13;27.40;36.10
15172;DHT22;7686;52.184;9.280;2022-12-29T09:55:49;27.40;36.10
15172;DHT22;7686;52.184;9.280;2022-12-29T09:58:28;27.40;36.10
15172;DHT22;7686;52.184;9.280;2022-12-29T10:01:17;27.30;36.20
15172;DHT22;7686;52.184;9.280;2022-12-29T10:03:54;27.30;36.20
15172;DHT22;7686;52.184;9.280;2022-12-29T10:15:35;27.30;36.40
15172;DHT22;7686;52.184;9.280;2022-12-29T10:18:57;27.20;36.30
15172;DHT22;7686;52.184;9.280;2022-12-29T10:21:28;27.20;36.30
15172;DHT22;7686;52.184;9.280;2022-12-29T10:23:56;27.30;36.40
15172;DHT22;7686;52.184;9.280;2022-12-29T10:29:05;27.20;36.30
15172;DHT22;7686;52.184;9.280;2022-12-29T10:31:53;27.20;36.30
15172;DHT22;7686;52.184;9.280;2022-12-29T10:34:24;27.20;36.40
15172;DHT22;7686;52.184;9.280;2022-12-29T10:37:02;27.20;36.40
15172;DHT22;7686;52.184;9.280;2022-12-29T10:39:38;27.20;36.40
15172;DHT22;7686;52.184;9.280;2022-12-29T10:42:37;27.20;36.40
15172;DHT22;7686;52.184;9.280;2022-12-29T10:45:12;27.20;36.40
15172;DHT22;7686;52.184;9.280;2022-12-29T10:47:55;27.20;36.40
15172;DHT22;7686;52.184;9.280;2022-12-29T10:50:25;27.20;36.50
15172;DHT22;7686;52.184;9.280;2022-12-29T10:52:54;27.20;36.50
15172;DHT22;7686;52.184;9.280;2022-12-29T10:55:26;27.20;36.50
15172;DHT22;7686;52.184;9.280;2022-12-29T10:57:55;27.20;36.40
15172;DHT22;7686;52.184;9.280;2022-12-29T11:00:23;27.20;36.30
15172;DHT22;7686;52.184;9.280;2022-12-29T11:08:26;27.10;36.20
15172;DHT22;7686;52.184;9.280;2022-12-29T11:11:02;27.20;36.30
15172;DHT22;7686;52.184;9.280;2022-12-29T11:13:32;27.10;36.40
15172;DHT22;7686;52.184;9.280;2022-12-29T11:16:04;27.20;36.40
15172;DHT22;7686;52.184;9.280;2022-12-29T11:18:34;27.20;36.50
15172;DHT22;7686;52.184;9.280;2022-12-29T11:21:07;27.10;36.40
15172;DHT22;7686;52.184;9.280;2022-12-29T11:23:38;27.10;36.40
15172;DHT22;7686;52.184;9.280;2022-12-29T11:26:13;27.10;36.50
15172;DHT22;7686;52.184;9.280;2022-12-29T11:28:43;27.20;36.50
15172;DHT22;7686;52.184;9.280;2022-12-29T11:31:15;27.20;36.50
15172;DHT22;7686;52.184;9.280;2022-12-29T11:33:42;27.20;36.50
15172;DHT22;7686;52.184;9.280;2022-12-29T11:36:16;27.20;36.50
15172;DHT22;7686;52.184;9.280;2022-12-29T11:38:49;27.20;36.40
15172;DHT22;7686;52.184;9.280;2022-12-29T11:41:27;27.20;36.50
15172;DHT22;7686;52.184;9.280;2022-12-29T11:44:01;27.20;36.40
15172;DHT22;7686;52.184;9.280;2022-12-29T11:46:34;27.30;36.50
15172;DHT22;7686;52.184;9.280;2022-12-29T11:49:03;27.30;36.50
15172;DHT22;7686;52.184;9.280;2022-12-29T11:51:44;27.30;36.50
15172;DHT22;7686;52.184;9.280;2022-12-29T11:54:35;27.30;36.40
15172;DHT22;7686;52.184;9.280;2022-12-29T11:57:13;27.30;36.30
15172;DHT22;7686;52.184;9.280;2022-12-29T11:59:43;27.30;36.30
15172;DHT22;7686;52.184;9.280;2022-12-29T12:02:35;27.30;36.20
15172;DHT22;7686;52.184;9.280;2022-12-29T12:05:21;27.30;36.20
15172;DHT22;7686;52.184;9.280;2022-12-29T12:08:12;27.30;36.20
15172;DHT22;7686;52.184;9.280;2022-12-29T12:10:53;27.30;36.20
15172;DHT22;7686;52.184;9.280;2022-12-29T12:13:53;27.30;36.20
15172;DHT22;7686;52.184;9.280;2022-12-29T12:16:27;27.20;36.20
15172;DHT22;7686;52.184;9.280;2022-12-29T12:19:09;27.20;36.20
15172;DHT22;7686;52.184;9.280;2022-12-29T12:21:40;27.20;36.20
15172;DHT22;7686;52.184;9.280;2022-12-29T12:24:37;27.20;36.30
15172;DHT22;7686;52.184;9.280;2022-12-29T12:32:35;27.20;36.40
15172;DHT22;7686;52.184;9.280;2022-12-29T12:35:23;27.30;37.30
15172;DHT22;7686;52.184;9.280;2022-12-29T12:51:33;27.50;36.80
15172;DHT22;7686;52.184;9.280;2022-12-29T12:54:18;27.50;36.80
15172;DHT22;7686;52.184;9.280;2022-12-29T12:57:12;27.50;36.80
15172;DHT22;7686;52.184;9.280;2022-12-29T13:00:08;27.60;36.90
15172;DHT22;7686;52.184;9.280;2022-12-29T13:03:13;27.60;36.80
15172;DHT22;7686;52.184;9.280;2022-12-29T13:06:13;27.70;36.90
15172;DHT22;7686;52.184;9.280;2022-12-29T13:09:24;27.70;36.90
15172;DHT22;7686;52.184;9.280;2022-12-29T13:12:06;27.70;36.90
15172;DHT22;7686;52.184;9.280;2022-12-29T13:17:43;27.80;36.60
15172;DHT22;7686;52.184;9.280;2022-12-29T13:20:24;27.80;36.60
15172;DHT22;7686;52.184;9.280;2022-12-29T13:25:34;27.90;36.40
15172;DHT22;7686;52.184;9.280;2022-12-29T13:37:03;27.90;36.10
15172;DHT22;7686;52.184;9.280;2022-12-29T13:39:37;27.90;36.00
15172;DHT22;7686;52.184;9.280;2022-12-29T13:42:05;27.90;35.90
15172;DHT22;7686;52.184;9.280;2022-12-29T13:44:40;27.90;35.90
15172;DHT22;7686;52.184;9.280;2022-12-29T13:49:48;27.90;36.00
15172;DHT22;7686;52.184;9.280;2022-12-29T13:52:24;27.90;36.00
15172;DHT22;7686;52.184;9.280;2022-12-29T13:55:02;28.00;36.00
15172;DHT22;7686;52.184;9.280;2022-12-29T14:00:49;28.00;35.90
15172;DHT22;7686;52.184;9.280;2022-12-29T14:03:28;28.00;35.80
15172;DHT22;7686;52.184;9.280;2022-12-29T14:06:22;28.00;35.80
15172;DHT22;7686;52.184;9.280;2022-12-29T14:08:52;28.00;35.80
15172;DHT22;7686;52.184;9.280;2022-12-29T14:11:22;28.00;35.80
15172;DHT22;7686;52.184;9.280;2022-12-29T14:13:51;28.00;35.80
15172;DHT22;7686;52.184;9.280;2022-12-29T14:16:26;28.10;35.90
15172;DHT22;7686;52.184;9.280;2022-12-29T14:18:54;28.00;35.70
15172;DHT22;7686;52.184;9.280;2022-12-29T14:21:25;28.00;35.70
15172;DHT22;7686;52.184;9.280;2022-12-29T14:26:54;28.00;35.70
15172;DHT22;7686;52.184;9.280;2022-12-29T14:31:51;28.00;35.70
15172;DHT22;7686;52.184;9.280;2022-12-29T14:37:01;28.00;35.60
15172;DHT22;7686;52.184;9.280;2022-12-29T14:39:36;28.00;35.60
15172;DHT22;7686;52.184;9.280;2022-12-29T14:44:50;28.00;35.50
15172;DHT22;7686;52.184;9.280;2022-12-29T14:47:45;27.90;35.50
15172;DHT22;7686;52.184;9.280;2022-12-29T14:50:37;27.90;35.50
15172;DHT22;7686;52.184;9.280;2022-12-29T14:53:06;27.90;35.40
15172;DHT22;7686;52.184;9.280;2022-12-29T15:00:41;27.90;35.30
15172;DHT22;7686;52.184;9.280;2022-12-29T15:03:25;27.90;35.40
15172;DHT22;7686;52.184;9.280;2022-12-29T15:06:03;27.90;35.30
15172;DHT22;7686;52.184;9.280;2022-12-29T15:08:39;27.90;35.20
15172;DHT22;7686;52.184;9.280;2022-12-29T15:11:14;27.90;35.20
15172;DHT22;7686;52.184;9.280;2022-12-29T15:13:43;28.00;35.20
15172;DHT22;7686;52.184;9.280;2022-12-29T15:18:49;27.90;35.10
15172;DHT22;7686;52.184;9.280;2022-12-29T15:21:16;27.90;35.10
15172;DHT22;7686;52.184;9.280;2022-12-29T15:23:45;27.80;35.00
15172;DHT22;7686;52.184;9.280;2022-12-29T15:26:12;27.80;35.00
15172;DHT22;7686;52.184;9.280;2022-12-29T15:28:47;27.80;35.00
15172;DHT22;7686;52.184;9.280;2022-12-29T15:31:20;27.80;35.00
15172;DHT22;7686;52.184;9.280;2022-12-29T15:34:08;27.80;34.90
15172;DHT22;7686;52.184;9.280;2022-12-29T15:36:38;27.70;34.90
15172;DHT22;7686;52.184;9.280;2022-12-29T15:39:18;27.70;35.00
15172;DHT22;7686;52.184;9.280;2022-12-29T15:42:09;27.70;35.00
15172;DHT22;7686;52.184;9.280;2022-12-29T15:44:42;27.70;35.10
15172;DHT22;7686;52.184;9.280;2022-12-29T15:47:21;27.60;35.10
15172;DHT22;7686;52.184;9.280;2022-12-29T15:49:50;27.60;35.10
15172;DHT22;7686;52.184;9.280;2022-12-29T15:52:21;27.60;35.10
15172;DHT22;7686;52.184;9.280;2022-12-29T15:54:52;27.50;35.10
15172;DHT22;7686;52.184;9.280;2022-12-29T15:57:28;27.50;35.10
15172;DHT22;7686;52.184;9.280;2022-12-29T15:59:56;27.50;35.20
15172;DHT22;7686;52.184;9.280;2022-12-29T16:02:23;27.40;35.20
15172;DHT22;7686;52.184;9.280;2022-12-29T16:04:51;27.40;35.30
15172;DHT22;7686;52.184;9.280;2022-12-29T16:07:38;27.40;35.40
15172;DHT22;7686;52.184;9.280;2022-12-29T16:10:46;27.40;35.40
15172;DHT22;7686;52.184;9.280;2022-12-29T16:15:46;27.40;35.50
15172;DHT22;7686;52.184;9.280;2022-12-29T16:18:24;27.40;35.50
15172;DHT22;7686;52.184;9.280;2022-12-29T16:20:53;27.40;35.50
15172;DHT22;7686;52.184;9.280;2022-12-29T16:23:27;27.40;35.60
15172;DHT22;7686;52.184;9.280;2022-12-29T16:25:56;27.40;35.60
15172;DHT22;7686;52.184;9.280;2022-12-29T16:28:36;27.40;35.60
15172;DHT22;7686;52.184;9.280;2022-12-29T16:31:06;27.40;35.60
15172;DHT22;7686;52.184;9.280;2022-12-29T16:33:48;27.50;35.60
15172;DHT22;7686;52.184;9.280;2022-12-29T16:39:04;27.50;35.60
15172;DHT22;7686;52.184;9.280;2022-12-29T16:41:35;27.50;35.50
15172;DHT22;7686;52.184;9.280;2022-12-29T16:44:19;27.60;35.60
15172;DHT22;7686;52.184;9.280;2022-12-29T16:49:33;27.60;35.50
15172;DHT22;7686;52.184;9.280;2022-12-29T16:52:01;27.60;35.50
15172;DHT22;7686;52.184;9.280;2022-12-29T16:54:35;27.60;35.40
15172;DHT22;7686;52.184;9.280;2022-12-29T16:57:03;27.60;35.40
15172;DHT22;7686;52.184;9.280;2022-12-29T16:59:35;27.70;35.50
15172;DHT22;7686;52.184;9.280;2022-12-29T17:02:12;27.70;35.40
15172;DHT22;7686;52.184;9.280;2022-12-29T17:04:40;27.70;35.40
15172;DHT22;7686;52.184;9.280;2022-12-29T17:07:18;27.70;35.40
15172;DHT22;7686;52.184;9.280;2022-12-29T17:09:45;27.70;36.10
15172;DHT22;7686;52.184;9.280;2022-12-29T17:12:17;27.70;35.40
15172;DHT22;7686;52.184;9.280;2022-12-29T17:14:47;27.70;35.40
15172;DHT22;7686;52.184;9.280;2022-12-29T17:17:38;27.70;35.40
15172;DHT22;7686;52.184;9.280;2022-12-29T17:20:18;27.80;35.40
15172;DHT22;7686;52.184;9.280;2022-12-29T17:22:47;27.70;35.30
15172;DHT22;7686;52.184;9.280;2022-12-29T17:25:17;27.80;35.40
15172;DHT22;7686;52.184;9.280;2022-12-29T17:27:48;27.80;35.30
15172;DHT22;7686;52.184;9.280;2022-12-29T17:30:19;27.80;35.30
15172;DHT22;7686;52.184;9.280;2022-12-29T17:32:55;27.80;35.30
15172;DHT22;7686;52.184;9.280;2022-12-29T17:35:23;27.80;35.30
15172;DHT22;7686;52.184;9.280;2022-12-29T17:37:50;27.80;35.30
15172;DHT22;7686;52.184;9.280;2022-12-29T17:40:24;27.80;35.30
15172;DHT22;7686;52.184;9.280;2022-12-29T17:42:54;27.80;35.30
15172;DHT22;7686;52.184;9.280;2022-12-29T17:45:30;27.80;35.30
15172;DHT22;7686;52.184;9.280;2022-12-29T17:47:58;27.90;35.30
15172;DHT22;7686;52.184;9.280;2022-12-29T17:50:29;27.90;35.30
15172;DHT22;7686;52.184;9.280;2022-12-29T17:53:02;27.90;35.30
15172;DHT22;7686;52.184;9.280;2022-12-29T17:55:29;27.90;35.20
15172;DHT22;7686;52.184;9.280;2022-12-29T17:58:23;27.90;35.20
15172;DHT22;7686;52.184;9.280;2022-12-29T18:00:53;27.90;35.20
15172;DHT22;7686;52.184;9.280;2022-12-29T18:03:29;27.90;35.20
15172;DHT22;7686;52.184;9.280;2022-12-29T18:05:57;27.90;35.20
15172;DHT22;7686;52.184;9.280;2022-12-29T18:08:24;27.90;35.20
15172;DHT22;7686;52.184;9.280;2022-12-29T18:10:52;27.90;35.10
15172;DHT22;7686;52.184;9.280;2022-12-29T18:13:22;27.90;35.10
15172;DHT22;7686;52.184;9.280;2022-12-29T18:15:51;27.90;35.10